Malaga, Ohio
Current Conditions -  °F | °C
As of 7:53 PM on Friday 28 Nov 2014 (Local Time) from KHLG Reporting Station
Clear Clear  
Wind Chill: 19°   Ceiling: Unl
Heat Index: 26°   Visibility: 10mi
Dew Point: 19°   Wind: 6mph
Humidity: 75%   Direction: 200°SSW
Pressure: 30.21"   Gusts: NA
Location:  39.85°N, 81.15°W
Report Text: KHLG 290053Z 20005KT 10SM CLR M03/M07 A3021 RMK AO2 SNE08 SLP248 P0000 T10331072
Loading
Personal Weather Stations






























Interactive Weather Map New forecast layout! Learn more

10-Day Weather Forecast

Advertisements
Track Severe Weather on mobile